Time;durP1;ratioP1;P1;durP2;ratioP2;P2;SDS_P1;SDS_P2;PMS_P1;PMS_P2;Temp;Humidity;BMP_temperature;BMP_pressure;BME280_temperature;BME280_humidity;BME280_pressure;Samples;Min_cycle;Max_cycle;Signal;HPM_P1;HPM_P2
2022/05/12 00:02:01;;;;;;;0.90;0.60;;;19.40;99.90;;;;;;5034131;28;20789;-72
2022/05/12 00:04:28;;;;;;;1.00;0.60;;;19.30;99.90;;;;;;5035566;28;20163;-73
2022/05/12 00:06:54;;;;;;;1.67;1.57;;;19.20;99.90;;;;;;5035632;28;20507;-73
2022/05/12 00:09:20;;;;;;;0.90;0.60;;;19.20;99.90;;;;;;5035437;28;20426;-73
2022/05/12 00:11:46;;;;;;;0.90;0.60;;;19.10;99.90;;;;;;5035215;28;20171;-73
2022/05/12 00:14:12;;;;;;;0.90;0.60;;;19.00;99.90;;;;;;5035320;28;20429;-73
2022/05/12 00:16:37;;;;;;;0.90;0.60;;;19.00;99.90;;;;;;5035241;28;20665;-73
2022/05/12 00:19:03;;;;;;;0.90;0.60;;;18.90;99.90;;;;;;5033809;28;20438;-73
2022/05/12 00:21:29;;;;;;;0.90;0.70;;;18.80;99.90;;;;;;5035191;28;20212;-73
2022/05/12 00:23:58;;;;;;;1.20;0.60;;;18.70;99.90;;;;;;5033853;28;20450;-73
2022/05/12 00:26:30;;;;;;;0.90;0.80;;;18.60;99.90;;;;;;5033804;28;20664;-73
2022/05/12 00:28:57;;;;;;;1.20;0.60;;;18.60;99.90;;;;;;5034894;28;20430;-73
2022/05/12 00:31:23;;;;;;;1.07;0.60;;;18.50;99.90;;;;;;5033611;28;20417;-73
2022/05/12 00:33:49;;;;;;;0.90;0.60;;;18.50;99.90;;;;;;5034827;28;20468;-73
2022/05/12 00:36:15;;;;;;;1.10;0.87;;;18.40;99.90;;;;;;5034063;28;20418;-72
2022/05/12 00:38:41;;;;;;;0.80;0.60;;;18.40;99.90;;;;;;5034930;28;20215;-73
2022/05/12 00:41:07;;;;;;;0.97;0.70;;;18.30;99.90;;;;;;5034770;28;20175;-73
2022/05/12 00:43:50;;;;;;;0.80;0.70;;;18.30;99.90;;;;;;5035017;28;20198;-72
2022/05/12 00:46:20;;;;;;;1.07;0.60;;;18.30;99.90;;;;;;5034798;28;20437;-73
2022/05/12 00:48:46;;;;;;;0.90;0.67;;;18.20;99.90;;;;;;5034727;28;20997;-72
2022/05/12 00:51:33;;;;;;;0.80;0.50;;;18.10;99.90;;;;;;5034474;28;20398;-73
2022/05/12 00:54:02;;;;;;;0.90;0.80;;;18.10;99.90;;;;;;5034851;28;20437;-73
2022/05/12 00:56:28;;;;;;;0.80;0.50;;;18.10;99.90;;;;;;5034612;28;20771;-73
2022/05/12 00:59:00;;;;;;;1.20;0.80;;;18.00;99.90;;;;;;5034700;28;20429;-72
2022/05/12 01:01:26;;;;;;;0.80;0.70;;;18.00;99.90;;;;;;5034375;28;20489;-73
2022/05/12 01:03:53;;;;;;;0.90;0.60;;;17.90;99.90;;;;;;5034469;28;20823;-73
2022/05/12 01:06:18;;;;;;;0.80;0.70;;;17.90;99.90;;;;;;5033167;28;20214;-73
2022/05/12 01:08:45;;;;;;;0.80;0.60;;;17.80;99.90;;;;;;5034518;28;20450;-73
2022/05/12 01:11:13;;;;;;;0.80;0.70;;;17.80;99.90;;;;;;5034044;28;20226;-73
2022/05/12 01:13:39;;;;;;;1.00;0.80;;;17.80;99.90;;;;;;5033565;28;20402;-73
2022/05/12 01:16:05;;;;;;;0.90;0.70;;;17.70;99.90;;;;;;5034455;28;20438;-74
2022/05/12 01:18:35;;;;;;;1.30;0.63;;;17.70;99.90;;;;;;5034322;28;20435;-73
2022/05/12 01:21:01;;;;;;;0.90;0.70;;;17.70;99.90;;;;;;5034245;28;20413;-73
2022/05/12 01:23:33;;;;;;;0.80;0.50;;;17.70;99.90;;;;;;5033782;28;20406;-73
2022/05/12 01:26:01;;;;;;;0.83;0.60;;;17.70;99.90;;;;;;5034090;28;20174;-73
2022/05/12 01:28:27;;;;;;;0.80;0.60;;;17.70;99.90;;;;;;5033876;28;20457;-73
2022/05/12 01:30:53;;;;;;;0.90;0.80;;;17.60;99.90;;;;;;5033567;28;20398;-72
2022/05/12 01:33:19;;;;;;;0.80;0.50;;;17.60;99.90;;;;;;5033847;28;20438;-73
2022/05/12 01:35:45;;;;;;;0.80;0.50;;;17.60;99.90;;;;;;5033806;28;20441;-73
2022/05/12 01:38:11;;;;;;;0.90;0.73;;;17.60;99.90;;;;;;5033933;28;20199;-73
2022/05/12 01:40:37;;;;;;;0.80;0.60;;;17.50;99.90;;;;;;5032369;28;20175;-73
2022/05/12 01:43:02;;;;;;;0.90;0.60;;;17.50;99.90;;;;;;5032219;28;20168;-73
2022/05/12 01:45:28;;;;;;;0.80;0.60;;;17.50;99.90;;;;;;5033717;28;20405;-73
2022/05/12 01:47:53;;;;;;;0.83;0.60;;;17.50;99.90;;;;;;5033489;28;20603;-73
2022/05/12 01:50:21;;;;;;;1.67;1.13;;;17.50;99.90;;;;;;5033432;28;20172;-73
2022/05/12 01:52:46;;;;;;;0.90;0.60;;;17.50;99.90;;;;;;5033524;28;20164;-74
2022/05/12 01:55:15;;;;;;;0.87;0.67;;;17.50;99.90;;;;;;5033495;28;20425;-73
2022/05/12 01:57:44;;;;;;;0.80;0.60;;;17.50;99.90;;;;;;5033468;28;20170;-73
2022/05/12 02:00:12;;;;;;;4.10;0.90;;;17.40;99.90;;;;;;5032907;28;20493;-73
2022/05/12 02:02:39;;;;;;;1.00;0.60;;;17.50;99.90;;;;;;5033080;28;20418;-73
2022/05/12 02:05:09;;;;;;;1.23;0.90;;;17.50;99.90;;;;;;5032273;28;20855;-74
2022/05/12 02:07:38;;;;;;;0.90;0.60;;;17.40;99.90;;;;;;5033336;28;20452;-73
2022/05/12 02:10:07;;;;;;;0.90;0.70;;;17.40;99.90;;;;;;5031969;28;20414;-73
2022/05/12 02:12:32;;;;;;;0.90;0.70;;;17.40;99.90;;;;;;5032849;28;20411;-73
2022/05/12 02:14:58;;;;;;;1.20;0.80;;;17.40;99.90;;;;;;5033229;28;20395;-73
2022/05/12 02:17:23;;;;;;;1.27;0.80;;;17.40;99.90;;;;;;5033233;28;20171;-73
2022/05/12 02:19:49;;;;;;;0.90;0.60;;;17.30;99.90;;;;;;5031719;28;20199;-73
2022/05/12 02:22:14;;;;;;;0.80;0.60;;;17.30;99.90;;;;;;5032885;28;20172;-73
2022/05/12 02:24:40;;;;;;;0.80;0.60;;;17.20;99.90;;;;;;5033285;28;20168;-73
2022/05/12 02:27:06;;;;;;;0.80;0.50;;;17.10;99.90;;;;;;5032867;28;20577;-73
2022/05/12 02:29:32;;;;;;;0.80;0.60;;;17.00;99.90;;;;;;5033008;28;20422;-73
2022/05/12 02:31:57;;;;;;;0.80;0.50;;;16.90;99.90;;;;;;5031498;28;20164;-72
2022/05/12 02:34:23;;;;;;;0.90;0.60;;;16.70;99.90;;;;;;5032870;28;20186;-73
2022/05/12 02:37:00;;;;;;;0.80;0.50;;;16.60;99.90;;;;;;5032920;28;20198;-73
2022/05/12 02:39:30;;;;;;;0.90;0.63;;;16.50;99.90;;;;;;5031270;28;20198;-74
2022/05/12 02:41:56;;;;;;;0.80;0.50;;;16.40;99.90;;;;;;5032460;28;20406;-73
2022/05/12 02:44:22;;;;;;;0.90;0.60;;;16.20;99.90;;;;;;5032768;28;20956;-73
2022/05/12 02:46:48;;;;;;;0.80;0.60;;;16.10;99.90;;;;;;5032474;28;20539;-72
2022/05/12 02:49:14;;;;;;;1.00;0.67;;;16.00;99.90;;;;;;5032480;28;20238;-73
2022/05/12 02:51:43;;;;;;;1.03;0.70;;;15.90;99.90;;;;;;5031101;28;20174;-74
2022/05/12 02:54:10;;;;;;;0.80;0.50;;;15.70;99.90;;;;;;5032233;28;20422;-73
2022/05/12 02:56:35;;;;;;;2.27;0.70;;;15.60;99.90;;;;;;5032140;28;20807;-73
2022/05/12 02:59:01;;;;;;;1.27;0.90;;;15.50;99.90;;;;;;5032361;28;20498;-73
2022/05/12 03:01:26;;;;;;;0.80;0.50;;;15.50;99.90;;;;;;5032125;28;20195;-72
2022/05/12 03:03:53;;;;;;;1.20;0.60;;;15.40;99.90;;;;;;5032345;28;20203;-73
2022/05/12 03:06:18;;;;;;;1.93;1.33;;;15.30;99.90;;;;;;5032267;28;20160;-72
2022/05/12 03:08:44;;;;;;;1.00;0.70;;;15.20;99.90;;;;;;5030770;28;20461;-73
2022/05/12 03:11:10;;;;;;;0.80;0.50;;;15.10;99.90;;;;;;5031148;28;20156;-73
2022/05/12 03:13:35;;;;;;;0.80;0.50;;;15.00;99.90;;;;;;5032162;28;20405;-73
2022/05/12 03:16:02;;;;;;;0.80;0.50;;;14.90;99.90;;;;;;5032070;28;20187;-72
2022/05/12 03:18:28;;;;;;;0.80;0.50;;;14.80;99.90;;;;;;5032081;28;20282;-73
2022/05/12 03:20:54;;;;;;;1.47;0.87;;;14.80;99.90;;;;;;5031828;28;20405;-73
2022/05/12 03:23:22;;;;;;;0.80;0.50;;;14.70;99.90;;;;;;5030640;28;20411;-73
2022/05/12 03:25:48;;;;;;;0.80;0.50;;;14.60;99.90;;;;;;5031924;28;20160;-73
2022/05/12 03:28:14;;;;;;;0.90;0.70;;;14.60;99.90;;;;;;5031812;28;20461;-73
2022/05/12 03:30:40;;;;;;;0.80;0.60;;;14.50;99.90;;;;;;5031682;28;20449;-74
2022/05/12 03:33:07;;;;;;;0.80;0.50;;;14.40;99.90;;;;;;5030586;28;20182;-73
2022/05/12 03:35:33;;;;;;;1.03;0.80;;;14.40;99.90;;;;;;5030619;28;20429;-73
2022/05/12 03:37:58;;;;;;;0.80;0.50;;;14.30;99.90;;;;;;5031782;28;20478;-73
2022/05/12 03:40:24;;;;;;;0.80;0.60;;;14.20;99.90;;;;;;5031877;28;20930;-73
2022/05/12 03:42:50;;;;;;;0.90;0.80;;;14.20;99.90;;;;;;5031745;28;20168;-73
2022/05/12 03:45:16;;;;;;;0.80;0.50;;;14.20;99.90;;;;;;5030673;28;20645;-73
2022/05/12 03:47:44;;;;;;;0.87;0.70;;;14.10;99.90;;;;;;5031723;28;20407;-74
2022/05/12 03:50:17;;;;;;;0.80;0.50;;;14.00;99.90;;;;;;5030551;28;20429;-73
2022/05/12 03:52:43;;;;;;;0.90;0.60;;;14.00;99.90;;;;;;5031640;28;20407;-74
2022/05/12 03:55:11;;;;;;;1.57;0.70;;;13.90;99.90;;;;;;5031675;28;20429;-73
2022/05/12 03:57:38;;;;;;;0.80;0.60;;;13.90;99.90;;;;;;5031723;28;20192;-74
2022/05/12 04:00:06;;;;;;;0.90;0.60;;;13.90;99.90;;;;;;5031809;28;20493;-74
2022/05/12 04:02:32;;;;;;;0.80;0.60;;;13.80;99.90;;;;;;5030143;28;20417;-73
2022/05/12 04:04:57;;;;;;;0.80;0.50;;;13.80;99.90;;;;;;5031521;28;20402;-72
2022/05/12 04:07:23;;;;;;;0.80;0.50;;;13.70;99.90;;;;;;5031598;28;20230;-73
2022/05/12 04:09:50;;;;;;;0.80;0.50;;;13.70;99.90;;;;;;5030281;28;20187;-73
2022/05/12 04:12:15;;;;;;;0.80;0.50;;;13.70;99.90;;;;;;5031348;28;20160;-74
2022/05/12 04:14:42;;;;;;;0.80;0.60;;;13.60;99.90;;;;;;5031593;28;20465;-74
2022/05/12 04:17:13;;;;;;;0.80;0.50;;;13.60;99.90;;;;;;5031448;28;20586;-73
2022/05/12 04:19:39;;;;;;;0.80;0.50;;;13.60;99.90;;;;;;5031501;28;20426;-73
2022/05/12 04:22:05;;;;;;;0.80;0.50;;;13.60;99.90;;;;;;5030356;28;20414;-74
2022/05/12 04:24:31;;;;;;;0.80;0.50;;;13.60;99.90;;;;;;5034148;28;20418;-74
2022/05/12 04:26:57;;;;;;;0.80;0.50;;;13.60;99.90;;;;;;5035136;28;20247;-73
2022/05/12 04:29:23;;;;;;;0.80;0.50;;;13.60;99.90;;;;;;5033920;28;20441;-73
2022/05/12 04:31:49;;;;;;;0.80;0.50;;;13.60;99.90;;;;;;5034915;28;20444;-73
2022/05/12 04:36:59;;;;;;;1.17;0.70;;;13.50;99.90;;;;;;5035053;28;20286;-73
2022/05/12 04:39:24;;;;;;;0.87;0.57;;;13.60;99.90;;;;;;5034919;28;20509;-74
2022/05/12 04:41:50;;;;;;;0.80;0.50;;;13.60;99.90;;;;;;5033331;28;20215;-74
2022/05/12 04:44:15;;;;;;;0.80;0.50;;;13.60;99.90;;;;;;5034912;28;20175;-74
2022/05/12 04:46:42;;;;;;;0.80;0.50;;;13.60;99.90;;;;;;5034935;28;20584;-73
2022/05/12 04:49:09;;;;;;;0.80;0.50;;;13.60;99.90;;;;;;5035004;28;20199;-74
2022/05/12 04:51:36;;;;;;;0.80;0.60;;;13.60;99.90;;;;;;5034259;28;20418;-71
2022/05/12 04:54:02;;;;;;;0.80;0.50;;;13.70;99.90;;;;;;5034728;28;20466;-73
2022/05/12 04:56:28;;;;;;;0.80;0.50;;;13.70;99.90;;;;;;5034544;28;20942;-72
2022/05/12 04:58:54;;;;;;;0.80;0.50;;;13.70;99.90;;;;;;5033280;28;20191;-73
2022/05/12 05:01:19;;;;;;;0.80;0.57;;;13.80;99.90;;;;;;5034364;28;20403;-73
2022/05/12 05:03:45;;;;;;;0.80;0.50;;;13.80;99.90;;;;;;5034709;28;20406;-71
2022/05/12 05:06:11;;;;;;;0.80;0.50;;;13.80;99.90;;;;;;5034498;28;20221;-74
2022/05/12 05:08:37;;;;;;;0.80;0.60;;;13.90;99.90;;;;;;5035459;28;20437;-73
2022/05/12 05:11:06;;;;;;;1.37;0.70;;;13.90;99.90;;;;;;5035148;28;20183;-73
2022/05/12 05:13:32;;;;;;;1.10;0.80;;;14.00;99.90;;;;;;5034743;28;20171;-73
2022/05/12 05:15:58;;;;;;;0.80;0.60;;;14.00;99.90;;;;;;5035000;28;20476;-73
2022/05/12 05:18:24;;;;;;;0.80;0.50;;;14.10;99.90;;;;;;5035057;28;20497;-73
2022/05/12 05:20:50;;;;;;;0.80;0.50;;;14.10;99.90;;;;;;5032956;28;20910;-72
2022/05/12 05:23:16;;;;;;;0.80;0.50;;;14.20;99.90;;;;;;5034061;28;20198;-72
2022/05/12 05:25:43;;;;;;;0.80;0.60;;;14.20;99.90;;;;;;5032881;28;20805;-73
2022/05/12 05:28:10;;;;;;;1.73;1.13;;;14.30;99.90;;;;;;5033898;28;20429;-72
2022/05/12 05:30:36;;;;;;;0.80;0.60;;;14.40;99.90;;;;;;5032731;28;20414;-71
2022/05/12 05:33:02;;;;;;;0.80;0.60;;;14.50;99.90;;;;;;5033704;28;20520;-72
2022/05/12 05:35:28;;;;;;;0.80;0.50;;;14.60;99.90;;;;;;5033117;28;20497;-73
2022/05/12 05:37:54;;;;;;;0.80;0.50;;;14.70;99.90;;;;;;5033790;28;20202;-73
2022/05/12 05:40:23;;;;;;;1.40;0.77;;;14.90;99.90;;;;;;5033933;28;20237;-71
2022/05/12 05:42:49;;;;;;;0.80;0.60;;;15.00;99.90;;;;;;5033489;28;20493;-72
2022/05/12 05:45:17;;;;;;;0.80;0.70;;;15.10;99.90;;;;;;5032502;28;20485;-72
2022/05/12 05:47:46;;;;;;;0.80;0.50;;;15.40;99.90;;;;;;5032360;28;20414;-72
2022/05/12 05:50:19;;;;;;;2.20;0.90;;;15.60;99.90;;;;;;5033658;28;20843;-75
2022/05/12 05:55:29;;;;;;;1.00;0.70;;;16.00;99.90;;;;;;5033712;28;20405;-72
2022/05/12 05:57:58;;;;;;;0.90;0.60;;;16.30;99.90;;;;;;5033450;28;20449;-72
2022/05/12 06:00:24;;;;;;;1.10;0.60;;;16.60;99.90;;;;;;5033611;28;20164;-72
2022/05/12 06:02:50;;;;;;;1.20;0.73;;;16.90;99.90;;;;;;5033211;28;20756;-72
2022/05/12 06:05:17;;;;;;;0.80;0.50;;;17.20;99.90;;;;;;5033262;28;20394;-72
2022/05/12 06:07:43;;;;;;;0.90;0.60;;;17.60;99.90;;;;;;5033238;28;20256;-72
2022/05/12 06:10:08;;;;;;;0.90;0.70;;;18.00;99.90;;;;;;5039254;28;20414;-74
2022/05/12 06:12:34;;;;;;;0.80;0.50;;;18.40;99.90;;;;;;5039160;28;20172;-72
2022/05/12 06:15:00;;;;;;;2.07;0.60;;;18.80;99.90;;;;;;5033182;28;20583;-72
2022/05/12 06:17:26;;;;;;;0.80;0.50;;;19.20;99.90;;;;;;5033081;28;20460;-73
2022/05/12 06:19:52;;;;;;;0.90;0.60;;;19.60;99.90;;;;;;5032986;28;20191;-72
2022/05/12 06:22:19;;;;;;;0.90;0.73;;;20.10;99.90;;;;;;5032800;28;20172;-73
2022/05/12 06:24:47;;;;;;;1.00;0.60;;;20.70;99.90;;;;;;5033025;28;20565;-71
2022/05/12 06:27:19;;;;;;;1.30;1.07;;;21.10;99.90;;;;;;5033039;28;20413;-72
2022/05/12 06:29:45;;;;;;;0.80;0.50;;;21.50;99.90;;;;;;5032867;28;20513;-72
2022/05/12 06:32:11;;;;;;;0.90;0.70;;;21.90;99.90;;;;;;5031192;28;20426;-72
2022/05/12 06:34:37;;;;;;;0.93;0.70;;;22.40;99.90;;;;;;5031407;28;20414;-71
2022/05/12 06:37:04;;;;;;;1.07;0.70;;;23.00;99.90;;;;;;5032741;28;20453;-73
2022/05/12 06:39:30;;;;;;;0.90;0.60;;;23.50;99.90;;;;;;5032800;28;20865;-74
2022/05/12 06:41:56;;;;;;;1.63;1.13;;;24.10;99.90;;;;;;5032534;28;20405;-74
2022/05/12 06:44:22;;;;;;;1.63;1.00;;;24.70;99.90;;;;;;5032882;28;20403;-74
2022/05/12 06:46:48;;;;;;;0.90;0.70;;;25.30;99.90;;;;;;5032553;28;20413;-74
2022/05/12 06:49:13;;;;;;;1.23;1.13;;;26.00;99.90;;;;;;5032648;28;20271;-74
2022/05/12 06:51:39;;;;;;;0.90;0.60;;;26.80;99.90;;;;;;5032262;28;20530;-74
2022/05/12 06:54:05;;;;;;;1.00;0.90;;;27.70;99.90;;;;;;5032695;28;20184;-74
2022/05/12 06:56:30;;;;;;;0.90;0.60;;;28.20;99.90;;;;;;5032323;28;20652;-72
2022/05/12 06:58:56;;;;;;;1.30;1.20;;;28.20;99.90;;;;;;5032367;28;20213;-72
2022/05/12 07:01:21;;;;;;;1.00;0.70;;;28.40;99.70;;;;;;5033302;28;20163;-74
2022/05/12 07:03:48;;;;;;;1.20;0.90;;;29.20;98.00;;;;;;5035804;28;20171;-73
2022/05/12 07:06:13;;;;;;;0.90;0.80;;;30.10;94.60;;;;;;5031581;28;20167;-72
2022/05/12 07:08:42;;;;;;;2.10;1.90;;;30.10;89.50;;;;;;5032145;28;20632;-72
2022/05/12 07:11:09;;;;;;;1.50;1.40;;;29.40;71.50;;;;;;5032375;28;20164;-74
2022/05/12 07:13:35;;;;;;;1.10;0.70;;;28.80;67.00;;;;;;5034762;28;20478;-74
2022/05/12 07:16:02;;;;;;;1.00;0.80;;;29.30;70.10;;;;;;5036400;28;20403;-76
2022/05/12 07:18:28;;;;;;;1.00;0.70;;;30.50;69.60;;;;;;5032311;28;20873;-73
2022/05/12 07:26:39;;;;;;;1.00;0.70;;;32.50;61.90;;;;;;5032100;28;20907;-74
2022/05/12 07:29:09;;;;;;;1.03;0.90;;;32.80;60.00;;;;;;5031925;28;20425;-74
2022/05/12 07:31:35;;;;;;;0.90;0.70;;;32.40;58.40;;;;;;5030486;28;20414;-73
2022/05/12 07:34:01;;;;;;;0.90;0.70;;;31.90;57.20;;;;;;5030615;28;20413;-72
2022/05/12 07:36:30;;;;;;;1.10;0.90;;;31.20;56.10;;;;;;5031879;28;20637;-72
2022/05/12 07:38:56;;;;;;;1.30;1.03;;;30.50;55.40;;;;;;5031732;28;20558;-72
2022/05/12 07:41:22;;;;;;;1.63;1.27;;;29.80;54.50;;;;;;5033122;28;20404;-74
2022/05/12 07:43:48;;;;;;;2.13;1.50;;;30.00;55.50;;;;;;5034550;28;20409;-74
2022/05/12 07:46:17;;;;;;;9.00;1.50;;;31.20;55.50;;;;;;5033295;28;20493;-73
2022/05/12 07:48:43;;;;;;;1.17;1.03;;;32.50;53.30;;;;;;5031778;28;20931;-73
2022/05/12 07:51:09;;;;;;;1.40;0.93;;;34.10;50.70;;;;;;5031571;28;20419;-73
2022/05/12 07:53:37;;;;;;;1.00;0.80;;;35.90;49.40;;;;;;5031540;28;20600;-74
2022/05/12 07:56:03;;;;;;;1.37;0.90;;;37.70;47.60;;;;;;5031736;28;20465;-72
2022/05/12 07:58:29;;;;;;;1.17;1.07;;;39.20;44.80;;;;;;5036163;28;20460;-72
2022/05/12 08:00:55;;;;;;;1.57;0.97;;;39.80;43.40;;;;;;5039145;28;20949;-73
2022/05/12 08:03:22;;;;;;;0.90;0.80;;;39.10;41.60;;;;;;5040827;28;20466;-73
2022/05/12 08:05:48;;;;;;;1.53;0.70;;;37.90;41.00;;;;;;5043641;28;20587;-72
2022/05/12 08:08:14;;;;;;;0.90;0.70;;;36.80;41.10;;;;;;5039420;28;20493;-73
2022/05/12 08:10:40;;;;;;;0.90;0.70;;;36.00;41.40;;;;;;5034261;28;20179;-72
2022/05/12 08:13:07;;;;;;;1.00;0.87;;;35.10;41.60;;;;;;5035312;28;20179;-73
2022/05/12 08:15:33;;;;;;;0.90;0.70;;;34.80;42.40;;;;;;5034047;28;20544;-73
2022/05/12 08:17:58;;;;;;;1.00;0.83;;;35.10;42.70;;;;;;5035172;28;20537;-73
2022/05/12 08:20:25;;;;;;;1.00;0.90;;;35.60;42.60;;;;;;5035326;28;20171;-73
2022/05/12 08:22:51;;;;;;;1.33;1.00;;;36.30;42.60;;;;;;5035018;28;20522;-72
2022/05/12 08:25:18;;;;;;;0.90;0.70;;;37.60;42.20;;;;;;5035091;28;20399;-72
2022/05/12 08:27:44;;;;;;;1.50;1.00;;;38.80;41.20;;;;;;5035010;28;20406;-72
2022/05/12 08:30:12;;;;;;;1.10;0.90;;;39.10;39.80;;;;;;5035074;28;20398;-72
2022/05/12 08:32:38;;;;;;;1.00;0.80;;;39.00;37.90;;;;;;5034813;28;20687;-72
2022/05/12 08:35:05;;;;;;;0.90;0.80;;;38.40;37.20;;;;;;5035019;28;20436;-72
2022/05/12 08:37:31;;;;;;;1.63;1.10;;;37.60;37.20;;;;;;5034946;28;20610;-73
2022/05/12 08:39:56;;;;;;;1.10;1.00;;;36.50;37.20;;;;;;5034692;28;20437;-72
2022/05/12 08:42:33;;;;;;;1.47;1.37;;;35.40;37.10;;;;;;5034686;28;20636;-71
2022/05/12 08:45:03;;;;;;;0.90;0.60;;;34.30;37.60;;;;;;5034851;28;20295;-73
2022/05/12 08:47:45;;;;;;;1.00;0.90;;;34.40;38.70;;;;;;5033363;28;20410;-72
2022/05/12 08:50:18;;;;;;;1.00;0.80;;;34.40;38.50;;;;;;5034559;28;20409;-72
2022/05/12 08:52:53;;;;;;;1.00;0.90;;;34.70;38.20;;;;;;5033259;28;20781;-72
2022/05/12 08:55:34;;;;;;;1.10;1.00;;;34.60;38.40;;;;;;5034668;28;20417;-72
2022/05/12 08:58:05;;;;;;;1.00;0.80;;;35.80;39.10;;;;;;5034408;28;20454;-73
2022/05/12 09:00:51;;;;;;;4.10;0.93;;;37.80;38.90;;;;;;5034737;28;20401;-74
2022/05/12 09:03:47;;;;;;;0.90;0.80;;;40.00;38.10;;;;;;5034581;28;20390;-74
2022/05/12 09:06:21;;;;;;;1.30;1.20;;;41.90;37.10;;;;;;5037950;28;20414;-74
2022/05/12 09:09:10;;;;;;;1.10;1.00;;;43.70;35.90;;;;;;5039318;28;20434;-74
2022/05/12 09:12:11;;;;;;;0.93;0.83;;;44.00;34.60;;;;;;5041984;28;20488;-73
2022/05/12 09:15:00;;;;;;;1.27;1.17;;;43.50;33.50;;;;;;5034386;28;20849;-73
2022/05/12 09:17:48;;;;;;;1.00;0.80;;;43.30;32.40;;;;;;5033070;28;20496;-74
2022/05/12 09:20:17;;;;;;;1.10;1.00;;;42.30;31.80;;;;;;5034265;28;20418;-74
2022/05/12 09:22:43;;;;;;;1.00;0.90;;;40.80;31.80;;;;;;5033944;28;20413;-74
2022/05/12 09:25:11;;;;;;;0.90;0.70;;;39.60;32.30;;;;;;5034251;28;20409;-74
2022/05/12 09:27:39;;;;;;;1.00;0.90;;;39.10;33.10;;;;;;5034108;28;20449;-74
2022/05/12 09:30:10;;;;;;;1.20;0.80;;;39.00;33.50;;;;;;5035195;28;20779;-75
2022/05/12 09:32:38;;;;;;;1.60;1.10;;;40.10;33.80;;;;;;5039590;28;20411;-75
2022/05/12 09:35:03;;;;;;;0.90;0.80;;;41.90;33.60;;;;;;5037154;28;20410;-73
2022/05/12 09:37:30;;;;;;;1.20;1.10;;;43.90;32.90;;;;;;5033857;28;20781;-73
2022/05/12 09:40:00;;;;;;;2.03;1.00;;;45.20;31.60;;;;;;5033778;28;20213;-74
2022/05/12 09:42:28;;;;;;;1.17;1.07;;;46.60;31.00;;;;;;5033513;28;20381;-73
2022/05/12 09:44:57;;;;;;;2.03;1.13;;;47.90;29.80;;;;;;5033690;28;20716;-74
2022/05/12 09:47:24;;;;;;;1.17;1.07;;;48.00;28.70;;;;;;5033854;28;20503;-73
2022/05/12 09:49:50;;;;;;;1.20;1.10;;;48.20;28.40;;;;;;5032296;28;20424;-74
2022/05/12 09:52:22;;;;;;;1.20;1.10;;;49.10;28.30;;;;;;5033404;28;20373;-75
2022/05/12 09:54:48;;;;;;;1.20;1.10;;;50.30;27.80;;;;;;5033416;28;20261;-74
2022/05/12 09:57:22;;;;;;;1.17;1.07;;;51.30;27.40;;;;;;5033525;28;20414;-74
2022/05/12 09:59:55;;;;;;;1.30;1.20;;;52.00;27.10;;;;;;5033339;28;20401;-74
2022/05/12 10:07:53;;;;;;;1.30;1.20;;;52.60;26.60;;;;;;5033281;28;20410;-75
2022/05/12 10:08:08;;;;;;;1.40;1.30;;;53.80;25.70;;;;;;5033685;28;21019;-76
2022/05/12 10:10:34;;;;;;;1.80;1.70;;;54.10;25.50;;;;;;5034105;28;20406;-75
2022/05/12 10:13:31;;;;;;;1.50;1.40;;;54.40;24.60;;;;;;5032924;28;20175;-74
2022/05/12 10:15:59;;;;;;;1.60;1.50;;;54.80;24.40;;;;;;5034105;28;20474;-74
2022/05/12 10:18:33;;;;;;;1.57;1.47;;;55.30;24.10;;;;;;5033821;28;20399;-76
2022/05/12 10:21:16;;;;;;;1.40;1.30;;;55.10;23.80;;;;;;5033208;28;20365;-75
2022/05/12 10:23:52;;;;;;;1.27;1.17;;;53.50;23.30;;;;;;5033075;28;20377;-75
2022/05/12 10:26:50;;;;;;;1.20;1.10;;;51.30;23.20;;;;;;5033075;28;20391;-73
2022/05/12 10:29:28;;;;;;;1.30;1.20;;;49.90;23.80;;;;;;5031586;28;20424;-74
2022/05/12 10:32:15;;;;;;;1.30;1.20;;;50.40;24.20;;;;;;5032584;28;20376;-74
2022/05/12 10:34:43;;;;;;;1.20;1.10;;;50.80;24.00;;;;;;5031464;28;20448;-73
2022/05/12 10:37:40;;;;;;;1.30;1.20;;;50.60;24.00;;;;;;5032771;28;20899;-75
2022/05/12 10:40:33;;;;;;;1.10;1.00;;;50.80;24.10;;;;;;5032796;28;20384;-75
2022/05/12 10:43:36;;;;;;;1.20;1.10;;;51.90;24.10;;;;;;5032433;28;20368;-74
2022/05/12 10:46:35;;;;;;;1.10;1.00;;;51.90;23.50;;;;;;5032643;28;21017;-73
2022/05/12 10:49:15;;;;;;;1.30;1.20;;;50.20;23.30;;;;;;5033401;28;20413;-75
2022/05/12 10:52:19;;;;;;;1.20;1.10;;;49.70;23.80;;;;;;5035592;28;20442;-75
2022/05/12 10:55:07;;;;;;;1.30;1.20;;;50.50;23.90;;;;;;5035791;28;20918;-75
2022/05/12 10:57:57;;;;;;;1.30;1.20;;;51.80;23.70;;;;;;5037581;28;20369;-75
2022/05/12 11:00:48;;;;;;;1.23;1.13;;;53.00;23.60;;;;;;5038385;28;20503;-75
2022/05/12 11:03:24;;;;;;;1.40;1.30;;;54.30;23.40;;;;;;5036480;28;20921;-75
2022/05/12 11:06:00;;;;;;;1.50;1.40;;;55.40;23.10;;;;;;5034530;28;20489;-75
2022/05/12 11:08:38;;;;;;;1.53;1.43;;;56.30;23.00;;;;;;5035198;28;20503;-76
2022/05/12 11:11:11;;;;;;;1.50;1.40;;;57.20;22.60;;;;;;5033966;28;20907;-75
2022/05/12 11:13:45;;;;;;;2.00;1.90;;;58.00;22.40;;;;;;5033999;28;20373;-75
2022/05/12 11:16:33;;;;;;;1.90;1.80;;;58.50;22.20;;;;;;5034278;28;20453;-75
2022/05/12 11:19:01;;;;;;;1.90;1.80;;;58.40;21.70;;;;;;5034505;28;20841;-73
2022/05/12 11:21:29;;;;;;;1.70;1.60;;;58.30;21.50;;;;;;5033776;28;20974;-75
2022/05/12 11:24:22;;;;;;;2.23;1.80;;;57.60;21.10;;;;;;5034872;28;20406;-75
2022/05/12 11:26:56;;;;;;;1.60;1.50;;;56.90;20.70;;;;;;5033973;28;20422;-73
2022/05/12 11:29:50;;;;;;;1.50;1.40;;;55.60;20.70;;;;;;5036192;28;20454;-73
2022/05/12 11:32:38;;;;;;;1.60;1.50;;;54.80;21.00;;;;;;5036257;28;20380;-73
2022/05/12 11:35:08;;;;;;;1.50;1.40;;;55.20;21.20;;;;;;5036340;28;20444;-74
2022/05/12 11:37:43;;;;;;;1.50;1.40;;;55.70;21.30;;;;;;5034885;28;20400;-73
2022/05/12 11:40:32;;;;;;;1.60;1.50;;;55.30;21.00;;;;;;5036998;28;20372;-73
2022/05/12 11:46:31;;;;;;;1.50;1.40;;;55.40;21.20;;;;;;5038142;28;20507;-73
2022/05/12 11:49:08;;;;;;;1.50;1.40;;;55.50;20.90;;;;;;5036264;28;20475;-73
2022/05/12 11:52:04;;;;;;;1.40;1.30;;;55.50;21.00;;;;;;5037648;28;20406;-73
2022/05/12 11:54:47;;;;;;;1.57;1.47;;;55.40;20.90;;;;;;5035845;28;20420;-74
2022/05/12 11:57:24;;;;;;;1.60;1.50;;;55.70;21.00;;;;;;5035730;28;20741;-74
2022/05/12 12:00:02;;;;;;;1.70;1.60;;;56.30;21.10;;;;;;5034251;28;20479;-74
2022/05/12 12:02:27;;;;;;;1.60;1.50;;;56.50;21.10;;;;;;5035455;28;20419;-74
2022/05/12 12:04:55;;;;;;;2.23;2.00;;;56.80;21.00;;;;;;5033100;28;20381;-75
2022/05/12 12:07:34;;;;;;;2.17;2.07;;;57.00;20.30;;;;;;5033967;28;20222;-74
2022/05/12 12:10:25;;;;;;;1.70;1.60;;;57.00;20.30;;;;;;5032940;28;20859;-74
2022/05/12 12:13:03;;;;;;;2.30;2.20;;;57.30;20.40;;;;;;5032397;28;20932;-74
2022/05/12 12:15:35;;;;;;;2.27;2.17;;;57.60;20.50;;;;;;5032859;28;20406;-74
2022/05/12 12:18:25;;;;;;;1.80;1.70;;;57.70;20.30;;;;;;5033251;28;20457;-74
2022/05/12 12:20:58;;;;;;;1.87;1.77;;;57.70;20.30;;;;;;5032293;28;20473;-74
2022/05/12 12:23:34;;;;;;;1.83;1.73;;;57.80;20.40;;;;;;5031529;28;20385;-74
2022/05/12 12:26:10;;;;;;;1.83;1.73;;;57.90;20.50;;;;;;5032889;28;20394;-74
2022/05/12 12:28:35;;;;;;;1.80;1.70;;;58.10;20.70;;;;;;5032585;28;20460;-74
2022/05/12 12:31:23;;;;;;;1.73;1.63;;;57.50;20.40;;;;;;5034699;28;20418;-74
2022/05/12 12:34:19;;;;;;;2.00;1.90;;;55.90;20.90;;;;;;5037345;28;20250;-73
2022/05/12 12:36:47;;;;;;;1.97;1.43;;;55.40;20.60;;;;;;5036385;28;20377;-73
2022/05/12 12:39:29;;;;;;;1.40;1.30;;;54.70;20.40;;;;;;5033642;28;20501;-74
2022/05/12 12:42:08;;;;;;;1.60;1.50;;;53.20;20.40;;;;;;5033626;28;20384;-74
2022/05/12 12:44:41;;;;;;;1.50;1.40;;;52.50;20.80;;;;;;5036900;28;20385;-74
2022/05/12 12:47:20;;;;;;;1.37;1.27;;;52.10;20.80;;;;;;5037839;28;20432;-73
2022/05/12 12:50:10;;;;;;;1.40;1.30;;;51.70;20.90;;;;;;5037785;28;20906;-73
2022/05/12 12:52:41;;;;;;;1.40;1.30;;;51.60;21.00;;;;;;5038194;28;20409;-74
2022/05/12 12:58:06;;;;;;;1.60;1.50;;;51.60;21.00;;;;;;5038417;28;20439;-73
2022/05/12 13:00:36;;;;;;;1.33;1.23;;;51.40;21.10;;;;;;5036665;28;20449;-74
2022/05/12 13:03:19;;;;;;;1.37;1.27;;;51.00;21.10;;;;;;5035799;28;20400;-74
2022/05/12 13:05:44;;;;;;;1.40;1.30;;;50.50;21.20;;;;;;5037905;28;20389;-73
2022/05/12 13:08:27;;;;;;;1.30;1.20;;;50.20;21.40;;;;;;5036583;28;20436;-73
2022/05/12 13:10:59;;;;;;;4.50;1.37;;;49.60;21.40;;;;;;5036136;28;20182;-73
2022/05/12 13:13:25;;;;;;;1.10;1.00;;;49.40;21.50;;;;;;5035467;28;20385;-73
2022/05/12 13:15:57;;;;;;;1.30;1.20;;;49.40;21.60;;;;;;5035924;28;20817;-73
2022/05/12 13:18:33;;;;;;;1.53;1.43;;;49.50;21.80;;;;;;5036970;28;20198;-73
2022/05/12 13:21:00;;;;;;;1.20;1.10;;;49.30;21.50;;;;;;5037040;28;20410;-73
2022/05/12 13:23:29;;;;;;;1.17;1.07;;;49.20;21.60;;;;;;5038358;28;20385;-73
2022/05/12 13:25:58;;;;;;;1.30;1.20;;;49.20;21.80;;;;;;5037960;28;20864;-73